PWSweather.com
Personal Weather Stations
Station Observations
WISCHPK61
Green Bay Schmitt Park, Green Bay, WI 54311

Green Bay Schmitt ParkGreen Bay, WI 54311

Lat: 44.514277, Lon: -87.935067

Elevation: 735

Station Type: Acu Rite Pro Weather Center model 02032C

http://greenbayweathercam.com

High Low Average
Temperature 17.1°F-8.3°C 0.5°F-17.5°C 6.4°F-14.2°C
Dew Point 16.9°F-8.4°C -4.4°F-20.2°C 5.3°F-14.8°C
Winds 2.3 mph 3.7 kmh Calm Calm Calm SWCalm SW
Wind Gusts 3.5 mph5.6 kmh -- --
Humidity 99% 66% 95%
Pressure 29.77 in1008.1 mb 29.48 in998.3 mb -
Precipitation 0.00 in0.0 mm - -
Hour Temp Dew Point Humidity Winds Wind Gusts Pressure Precip Precip Rate Daily Precip Total
12:00 AM 5.4°F-14.8°C 1.1°F-17.2°C 82% Calm Calm -- 29.48 in998.3 mb - 0.00 in0.0 mm 0.00 in0.0 mm
01:00 AM 4.6°F-15.2°C 4.4°F-15.3°C 99% Calm Calm -- 29.49 in998.6 mb - 0.00 in0.0 mm 0.00 in0.0 mm
02:00 AM 5.7°F-14.6°C 5.5°F-14.7°C 99% 1.2 mph NNW1.9 kmh NNW 1.2 mph1.9 kmh 29.52 in999.7 mb - 0.00 in0.0 mm 0.00 in0.0 mm
03:00 AM 5.2°F-14.9°C 5.0°F-15.0°C 99% Calm Calm -- 29.54 in1000.3 mb - 0.00 in0.0 mm 0.00 in0.0 mm
04:00 AM 4.5°F-15.3°C -4.4°F-20.2°C 66% Calm Calm -- 29.54 in1000.3 mb - 0.00 in0.0 mm 0.00 in0.0 mm
05:00 AM 2.7°F-16.3°C 2.5°F-16.4°C 99% 2.3 mph NW3.7 kmh NW 3.5 mph5.6 kmh 29.55 in1000.7 mb - 0.00 in0.0 mm 0.00 in0.0 mm
06:00 AM 1.8°F-16.8°C -1.7°F-18.7°C 85% Calm Calm -- 29.57 in1001.4 mb - 0.00 in0.0 mm 0.00 in0.0 mm
07:00 AM 0.5°F-17.5°C 0.3°F-17.6°C 99% Calm Calm -- 29.59 in1002.0 mb - 0.00 in0.0 mm 0.00 in0.0 mm
08:00 AM 1.0°F-17.2°C 0.8°F-17.3°C 99% Calm Calm -- 29.61 in1002.7 mb - 0.00 in0.0 mm 0.00 in0.0 mm
09:00 AM 3.7°F-15.7°C -2.5°F-19.2°C 75% Calm Calm -- 29.63 in1003.4 mb - 0.00 in0.0 mm 0.00 in0.0 mm
10:00 AM 6.6°F-14.1°C 6.4°F-14.2°C 99% Calm Calm -- 29.64 in1003.7 mb - 0.00 in0.0 mm 0.00 in0.0 mm
11:00 AM 11.7°F-11.3°C 11.5°F-11.4°C 99% Calm Calm -- 29.65 in1004.1 mb - 0.00 in0.0 mm 0.00 in0.0 mm
12:00 PM 17.1°F-8.3°C 16.9°F-8.4°C 99% Calm Calm -- 29.66 in1004.4 mb - 0.00 in0.0 mm 0.00 in0.0 mm
01:00 PM 16.7°F-8.5°C 16.5°F-8.6°C 99% Calm Calm -- 29.66 in1004.4 mb - 0.00 in0.0 mm 0.00 in0.0 mm
02:00 PM 13.6°F-10.2°C 13.4°F-10.3°C 99% Calm Calm -- 29.66 in1004.4 mb - 0.00 in0.0 mm 0.00 in0.0 mm
03:00 PM 12.4°F-10.9°C 12.2°F-11.0°C 99% Calm Calm -- 29.68 in1005.1 mb - 0.00 in0.0 mm 0.00 in0.0 mm
04:00 PM 9.1°F-12.7°C 8.9°F-12.8°C 99% Calm Calm -- 29.69 in1005.4 mb - 0.00 in0.0 mm 0.00 in0.0 mm
05:00 PM 7.2°F-13.8°C 7.0°F-13.9°C 99% Calm Calm -- 29.71 in1006.1 mb - 0.00 in0.0 mm 0.00 in0.0 mm
06:00 PM 5.9°F-14.5°C 5.7°F-14.6°C 99% Calm Calm -- 29.72 in1006.4 mb - 0.00 in0.0 mm 0.00 in0.0 mm
07:00 PM 5.2°F-14.9°C 5.0°F-15.0°C 99% Calm Calm -- 29.73 in1006.8 mb - 0.00 in0.0 mm 0.00 in0.0 mm
08:00 PM 4.5°F-15.3°C 4.3°F-15.4°C 99% Calm Calm -- 29.74 in1007.1 mb - 0.00 in0.0 mm 0.00 in0.0 mm
09:00 PM 3.6°F-15.8°C 3.4°F-15.9°C 99% Calm Calm -- 29.75 in1007.5 mb - 0.00 in0.0 mm 0.00 in0.0 mm
10:00 PM 2.8°F-16.2°C 2.6°F-16.3°C 99% Calm Calm -- 29.76 in1007.8 mb - 0.00 in0.0 mm 0.00 in0.0 mm
11:00 PM 1.8°F-16.8°C 1.6°F-16.9°C 99% Calm Calm -- 29.77 in1008.1 mb - 0.00 in0.0 mm 0.00 in0.0 mm